Time;durP1;ratioP1;P1;durP2;ratioP2;P2;SDS_P1;SDS_P2;PMS_P1;PMS_P2;Temp;Humidity;BMP_temperature;BMP_pressure;BME280_temperature;BME280_humidity;BME280_pressure;Samples;Min_cycle;Max_cycle;Signal;HPM_P1;HPM_P2
2024/01/06 00:01:16;;;;;;;;;;;;;;;;;;5019578;28;58445;-61
2024/01/06 00:03:41;;;;;;;;;;;;;;;;;;5019287;28;59738;-62
2024/01/06 00:06:07;;;;;;;;;;;;;;;;;;5015675;28;59025;-61
2024/01/06 00:08:32;;;;;;;;;;;;;;;;;;5019739;27;60491;-61
2024/01/06 00:10:57;;;;;;;;;;;;;;;;;;5017284;28;58760;-61
2024/01/06 00:13:22;;;;;;;;;;;;;;;;;;5015272;28;58328;-62
2024/01/06 00:15:47;;;;;;;;;;;;;;;;;;5019362;27;61419;-63
2024/01/06 00:18:12;;;;;;;;;;;;;;;;;;5015154;28;58782;-61
2024/01/06 00:20:38;;;;;;;;;;;;;;;;;;5015028;28;58752;-61
2024/01/06 00:23:03;;;;;;;;;;;;;;;;;;5020820;28;59284;-63
2024/01/06 00:25:28;;;;;;;;;;;;;;;;;;5016242;28;59125;-63
2024/01/06 00:27:53;;;;;;;;;;;;;;;;;;5017443;28;58681;-61
2024/01/06 00:30:18;;;;;;;;;;;;;;;;;;5014440;28;59642;-62
2024/01/06 00:32:43;;;;;;;;;;;;;;;;;;5019084;28;58575;-61
2024/01/06 00:35:08;;;;;;;;;;;;;;;;;;5019766;28;59405;-61
2024/01/06 00:37:33;;;;;;;;;;;;;;;;;;5018041;28;58792;-61
2024/01/06 00:39:58;;;;;;;;;;;;;;;;;;5013892;28;58808;-62
2024/01/06 00:42:23;;;;;;;;;;;;;;;;;;5016792;27;60375;-61
2024/01/06 00:44:48;;;;;;;;;;;;;;;;;;5012475;28;58838;-61
2024/01/06 00:47:14;;;;;;;;;;;;;;;;;;5017299;28;59595;-61
2024/01/06 00:49:39;;;;;;;;;;;;;;;;;;5017051;28;60716;-62
2024/01/06 00:52:04;;;;;;;;;;;;;;;;;;5014444;28;58874;-61
2024/01/06 00:54:29;;;;;;;;;;;;;;;;;;5019412;28;60404;-63
2024/01/06 00:56:54;;;;;;;;;;;;;;;;;;5016768;28;59210;-63
2024/01/06 00:59:19;;;;;;;;;;;;;;;;;;5017587;28;58873;-62
2024/01/06 01:01:44;;;;;;;;;;;;;;;;;;5019018;28;59697;-64
2024/01/06 01:04:09;;;;;;;;;;;;;;;;;;5015086;28;58895;-62
2024/01/06 01:06:34;;;;;;;;;;;;;;;;;;5013198;28;58734;-64
2024/01/06 01:08:59;;;;;;;;;;;;;;;;;;5018847;28;60617;-61
2024/01/06 01:11:24;;;;;;;;;;;;;;;;;;5020420;28;58490;-62
2024/01/06 01:13:49;;;;;;;;;;;;;;;;;;5014850;28;58662;-61
2024/01/06 01:16:14;;;;;;;;;;;;;;;;;;5017953;28;59962;-62
2024/01/06 01:18:39;;;;;;;;;;;;;;;;;;5020349;28;58709;-62
2024/01/06 01:21:04;;;;;;;;;;;;;;;;;;5016569;28;58450;-62
2024/01/06 01:23:30;;;;;;;;;;;;;;;;;;5014303;28;59285;-64
2024/01/06 01:25:55;;;;;;;;;;;;;;;;;;5021325;27;58819;-62
2024/01/06 01:28:20;;;;;;;;;;;;;;;;;;5020471;28;59391;-61
2024/01/06 01:30:45;;;;;;;;;;;;;;;;;;5021659;27;59572;-61
2024/01/06 01:33:10;;;;;;;;;;;;;;;;;;5017714;28;59047;-61
2024/01/06 01:35:35;;;;;;;;;;;;;;;;;;5015958;27;59473;-61
2024/01/06 01:38:00;;;;;;;;;;;;;;;;;;5017195;28;58710;-61
2024/01/06 01:40:25;;;;;;;;;;;;;;;;;;5014162;28;59507;-67
2024/01/06 01:42:51;;;;;;;;;;;;;;;;;;5022081;27;58963;-68
2024/01/06 01:45:16;;;;;;;;;;;;;;;;;;5013355;27;58554;-67
2024/01/06 01:47:41;;;;;;;;;;;;;;;;;;5014453;27;60371;-67
2024/01/06 01:50:06;;;;;;;;;;;;;;;;;;5015115;28;60154;-66
2024/01/06 01:52:32;;;;;;;;;;;;;;;;;;5017332;28;58897;-67
2024/01/06 01:54:57;;;;;;;;;;;;;;;;;;5017429;28;59277;-66
2024/01/06 01:57:22;;;;;;;;;;;;;;;;;;5012176;28;58653;-67
2024/01/06 01:59:48;;;;;;;;;;;;;;;;;;5014072;28;59657;-67
2024/01/06 02:02:13;;;;;;;;;;;;;;;;;;5015979;28;58857;-67
2024/01/06 02:04:38;;;;;;;;;;;;;;;;;;5019204;28;58893;-68
2024/01/06 02:07:03;;;;;;;;;;;;;;;;;;5020029;27;59482;-68
2024/01/06 02:09:29;;;;;;;;;;;;;;;;;;5014836;28;58725;-68
2024/01/06 02:11:54;;;;;;;;;;;;;;;;;;5017380;28;58380;-68
2024/01/06 02:14:19;;;;;;;;;;;;;;;;;;5017456;27;58758;-67
2024/01/06 02:16:44;;;;;;;;;;;;;;;;;;5018894;28;58891;-66
2024/01/06 02:19:09;;;;;;;;;;;;;;;;;;5017214;27;60476;-67
2024/01/06 02:21:34;;;;;;;;;;;;;;;;;;5017641;28;58905;-67
2024/01/06 02:24:00;;;;;;;;;;;;;;;;;;5019908;28;58190;-66
2024/01/06 02:26:25;;;;;;;;;;;;;;;;;;5013325;28;59730;-67
2024/01/06 02:28:50;;;;;;;;;;;;;;;;;;5017091;28;59019;-67
2024/01/06 02:31:15;;;;;;;;;;;;;;;;;;5013750;28;58732;-67
2024/01/06 02:33:40;;;;;;;;;;;;;;;;;;5020877;27;61013;-67
2024/01/06 02:36:05;;;;;;;;;;;;;;;;;;5016008;28;58664;-67
2024/01/06 02:38:30;;;;;;;;;;;;;;;;;;5011438;28;59806;-67
2024/01/06 02:40:55;;;;;;;;;;;;;;;;;;5012540;28;59721;-67
2024/01/06 02:43:21;;;;;;;;;;;;;;;;;;5019923;28;59137;-67
2024/01/06 02:45:47;;;;;;;;;;;;;;;;;;5017168;28;59437;-67
2024/01/06 02:48:12;;;;;;;;;;;;;;;;;;5013094;28;60104;-66
2024/01/06 02:50:37;;;;;;;;;;;;;;;;;;5016466;28;58828;-62
2024/01/06 02:53:02;;;;;;;;;;;;;;;;;;5018732;28;59516;-63
2024/01/06 02:55:27;;;;;;;;;;;;;;;;;;5018486;28;59017;-62
2024/01/06 02:57:52;;;;;;;;;;;;;;;;;;5018707;28;58448;-64
2024/01/06 03:00:17;;;;;;;;;;;;;;;;;;5019790;28;59594;-62
2024/01/06 03:02:42;;;;;;;;;;;;;;;;;;5023815;28;58721;-63
2024/01/06 03:05:07;;;;;;;;;;;;;;;;;;5021771;27;60228;-63
2024/01/06 03:07:32;;;;;;;;;;;;;;;;;;5018797;28;59325;-62
2024/01/06 03:09:58;;;;;;;;;;;;;;;;;;5019799;27;58447;-61
2024/01/06 03:12:23;;;;;;;;;;;;;;;;;;5024667;28;60357;-62
2024/01/06 03:14:48;;;;;;;;;;;;;;;;;;5020729;27;58703;-62
2024/01/06 03:17:13;;;;;;;;;;;;;;;;;;5020945;27;59450;-62
2024/01/06 03:19:38;;;;;;;;;;;;;;;;;;5016750;28;58965;-62
2024/01/06 03:22:03;;;;;;;;;;;;;;;;;;5023041;27;58693;-62
2024/01/06 03:24:28;;;;;;;;;;;;;;;;;;5013659;28;60377;-63
2024/01/06 03:26:53;;;;;;;;;;;;;;;;;;5016675;28;59772;-61
2024/01/06 03:29:18;;;;;;;;;;;;;;;;;;5021790;28;58475;-63
2024/01/06 03:31:43;;;;;;;;;;;;;;;;;;5018963;28;59559;-62
2024/01/06 03:34:08;;;;;;;;;;;;;;;;;;5021500;28;58924;-62
2024/01/06 03:36:34;;;;;;;;;;;;;;;;;;5016452;27;58819;-62
2024/01/06 03:38:59;;;;;;;;;;;;;;;;;;5017833;27;59446;-62
2024/01/06 03:41:24;;;;;;;;;;;;;;;;;;5015310;28;58740;-64
2024/01/06 03:43:49;;;;;;;;;;;;;;;;;;5020753;28;60242;-63
2024/01/06 03:46:14;;;;;;;;;;;;;;;;;;5020407;28;58994;-63
2024/01/06 03:48:39;;;;;;;;;;;;;;;;;;5016151;27;59527;-61
2024/01/06 03:51:04;;;;;;;;;;;;;;;;;;5017737;28;59609;-64
2024/01/06 03:53:29;;;;;;;;;;;;;;;;;;5018892;27;59891;-63
2024/01/06 03:55:54;;;;;;;;;;;;;;;;;;5015903;28;58461;-63
2024/01/06 03:58:19;;;;;;;;;;;;;;;;;;5021172;28;58614;-62
2024/01/06 04:00:44;;;;;;;;;;;;;;;;;;5018856;28;59054;-67
2024/01/06 04:03:09;;;;;;;;;;;;;;;;;;5023826;28;60512;-67
2024/01/06 04:05:35;;;;;;;;;;;;;;;;;;5016645;28;59698;-67
2024/01/06 04:08:00;;;;;;;;;;;;;;;;;;5018894;27;58341;-66
2024/01/06 04:10:25;;;;;;;;;;;;;;;;;;5019565;28;59413;-67
2024/01/06 04:12:50;;;;;;;;;;;;;;;;;;5018106;28;59463;-66
2024/01/06 04:15:16;;;;;;;;;;;;;;;;;;5017036;28;78206;-66
2024/01/06 04:17:41;;;;;;;;;;;;;;;;;;5021302;28;59657;-67
2024/01/06 04:20:06;;;;;;;;;;;;;;;;;;5022394;28;59827;-67
2024/01/06 04:22:31;;;;;;;;;;;;;;;;;;5020510;28;59487;-66
2024/01/06 04:24:56;;;;;;;;;;;;;;;;;;5016974;27;58859;-67
2024/01/06 04:27:21;;;;;;;;;;;;;;;;;;5018640;27;58786;-66
2024/01/06 04:29:46;;;;;;;;;;;;;;;;;;5017362;28;59416;-67
2024/01/06 04:32:11;;;;;;;;;;;;;;;;;;5017336;28;59753;-66
2024/01/06 04:34:36;;;;;;;;;;;;;;;;;;5020225;28;58642;-66
2024/01/06 04:37:02;;;;;;;;;;;;;;;;;;5016896;28;59383;-66
2024/01/06 04:39:27;;;;;;;;;;;;;;;;;;5015216;28;58928;-66
2024/01/06 04:41:52;;;;;;;;;;;;;;;;;;5018411;27;58698;-67
2024/01/06 04:44:17;;;;;;;;;;;;;;;;;;5025260;28;58902;-66
2024/01/06 04:46:42;;;;;;;;;;;;;;;;;;5016959;28;58666;-67
2024/01/06 04:49:07;;;;;;;;;;;;;;;;;;5016692;28;59419;-66
2024/01/06 04:51:32;;;;;;;;;;;;;;;;;;5014773;27;58607;-67
2024/01/06 04:53:57;;;;;;;;;;;;;;;;;;5016649;28;58447;-67
2024/01/06 04:56:22;;;;;;;;;;;;;;;;;;5022355;28;60431;-66
2024/01/06 04:58:47;;;;;;;;;;;;;;;;;;5018683;28;58649;-66
2024/01/06 05:01:12;;;;;;;;;;;;;;;;;;5020257;28;58738;-67
2024/01/06 05:03:38;;;;;;;;;;;;;;;;;;5018571;28;60403;-66
2024/01/06 05:06:03;;;;;;;;;;;;;;;;;;5014937;28;59914;-67
2024/01/06 05:08:30;;;;;;;;;;;;;;;;;;5019183;27;59092;-66
2024/01/06 05:10:55;;;;;;;;;;;;;;;;;;5014886;28;59196;-61
2024/01/06 05:13:20;;;;;;;;;;;;;;;;;;5020876;28;58786;-61
2024/01/06 05:15:45;;;;;;;;;;;;;;;;;;5018776;27;59214;-61
2024/01/06 05:18:11;;;;;;;;;;;;;;;;;;5019299;28;60046;-62
2024/01/06 05:20:36;;;;;;;;;;;;;;;;;;5019480;28;58707;-67
2024/01/06 05:23:01;;;;;;;;;;;;;;;;;;5015320;28;59339;-67
2024/01/06 05:25:26;;;;;;;;;;;;;;;;;;5015968;28;59820;-67
2024/01/06 05:27:51;;;;;;;;;;;;;;;;;;5017927;28;58683;-66
2024/01/06 05:30:16;;;;;;;;;;;;;;;;;;5019792;28;60050;-66
2024/01/06 05:32:41;;;;;;;;;;;;;;;;;;5018828;28;58728;-67
2024/01/06 05:35:07;;;;;;;;;;;;;;;;;;5017141;28;59303;-66
2024/01/06 05:37:32;;;;;;;;;;;;;;;;;;5014242;28;59840;-67
2024/01/06 05:40:01;;;;;;;;;;;;;;;;;;5016354;28;58455;-67
2024/01/06 05:42:26;;;;;;;;;;;;;;;;;;5016593;28;59545;-65
2024/01/06 05:44:51;;;;;;;;;;;;;;;;;;5013102;27;59914;-67
2024/01/06 05:47:16;;;;;;;;;;;;;;;;;;5017243;28;58535;-67
2024/01/06 05:49:42;;;;;;;;;;;;;;;;;;5018159;28;59364;-66
2024/01/06 05:52:07;;;;;;;;;;;;;;;;;;5014879;28;58653;-67
2024/01/06 05:54:32;;;;;;;;;;;;;;;;;;5011400;28;59065;-67
2024/01/06 05:56:58;;;;;;;;;;;;;;;;;;5018510;28;60363;-66
2024/01/06 05:59:23;;;;;;;;;;;;;;;;;;5015305;28;58405;-66
2024/01/06 06:01:48;;;;;;;;;;;;;;;;;;5016856;28;59281;-66
2024/01/06 06:04:13;;;;;;;;;;;;;;;;;;5019747;28;58697;-65
2024/01/06 06:06:38;;;;;;;;;;;;;;;;;;5013486;28;59243;-67
2024/01/06 06:09:06;;;;;;;;;;;;;;;;;;5014997;28;59366;-67
2024/01/06 06:11:32;;;;;;;;;;;;;;;;;;5016533;28;58484;-66
2024/01/06 06:13:57;;;;;;;;;;;;;;;;;;5016117;28;60193;-67
2024/01/06 06:16:22;;;;;;;;;;;;;;;;;;5016277;28;58773;-67
2024/01/06 06:18:47;;;;;;;;;;;;;;;;;;5015476;28;58777;-66
2024/01/06 06:21:12;;;;;;;;;;;;;;;;;;5014823;28;59627;-67
2024/01/06 06:23:37;;;;;;;;;;;;;;;;;;5016200;28;59432;-66
2024/01/06 06:26:02;;;;;;;;;;;;;;;;;;5016200;28;58592;-67
2024/01/06 06:28:27;;;;;;;;;;;;;;;;;;5019094;28;59696;-66
2024/01/06 06:30:53;;;;;;;;;;;;;;;;;;5012523;28;59050;-66
2024/01/06 06:33:18;;;;;;;;;;;;;;;;;;5014329;27;59544;-67
2024/01/06 06:35:43;;;;;;;;;;;;;;;;;;5018627;28;59566;-67
2024/01/06 06:38:08;;;;;;;;;;;;;;;;;;5024220;28;58714;-66
2024/01/06 06:40:33;;;;;;;;;;;;;;;;;;5022307;28;59741;-68
2024/01/06 06:42:58;;;;;;;;;;;;;;;;;;5023207;27;59226;-66
2024/01/06 06:45:23;;;;;;;;;;;;;;;;;;5017621;28;58710;-67
2024/01/06 06:47:49;;;;;;;;;;;;;;;;;;5025473;27;58958;-66
2024/01/06 06:50:14;;;;;;;;;;;;;;;;;;5025684;27;59099;-66
2024/01/06 06:52:39;;;;;;;;;;;;;;;;;;5024131;28;58767;-66
2024/01/06 06:55:04;;;;;;;;;;;;;;;;;;5023468;27;60584;-66
2024/01/06 06:57:30;;;;;;;;;;;;;;;;;;5026968;27;58752;-67
2024/01/06 06:59:55;;;;;;;;;;;;;;;;;;5022297;27;59571;-66
2024/01/06 07:02:20;;;;;;;;;;;;;;;;;;5025248;27;59020;-66
2024/01/06 07:04:45;;;;;;;;;;;;;;;;;;5023219;28;58968;-66
2024/01/06 07:07:10;;;;;;;;;;;;;;;;;;5027554;27;60397;-65
2024/01/06 07:09:35;;;;;;;;;;;;;;;;;;5025100;28;59535;-67
2024/01/06 07:12:00;;;;;;;;;;;;;;;;;;5024554;28;59120;-66
2024/01/06 07:14:25;;;;;;;;;;;;;;;;;;5026549;28;59099;-67
2024/01/06 07:16:50;;;;;;;;;;;;;;;;;;5022930;28;59362;-67
2024/01/06 07:19:15;;;;;;;;;;;;;;;;;;5024057;28;59553;-66
2024/01/06 07:21:40;;;;;;;;;;;;;;;;;;5019052;28;59920;-67
2024/01/06 07:24:05;;;;;;;;;;;;;;;;;;5021384;27;58974;-66
2024/01/06 07:26:31;;;;;;;;;;;;;;;;;;5017726;28;60280;-66
2024/01/06 07:28:56;;;;;;;;;;;;;;;;;;5025406;27;58932;-66
2024/01/06 07:31:21;;;;;;;;;;;;;;;;;;5025326;28;58215;-61
2024/01/06 07:33:46;;;;;;;;;;;;;;;;;;5024612;27;58610;-62
2024/01/06 07:36:11;;;;;;;;;;;;;;;;;;5024165;27;59593;-62
2024/01/06 07:38:36;;;;;;;;;;;;;;;;;;5021408;28;59547;-62
2024/01/06 07:41:01;;;;;;;;;;;;;;;;;;5020061;27;58995;-61
2024/01/06 07:43:27;;;;;;;;;;;;;;;;;;5023834;28;58636;-62
2024/01/06 07:45:52;;;;;;;;;;;;;;;;;;5018558;27;60418;-61
2024/01/06 07:48:17;;;;;;;;;;;;;;;;;;5017822;28;60662;-61
2024/01/06 07:50:42;;;;;;;;;;;;;;;;;;5021998;28;58542;-61
2024/01/06 07:53:07;;;;;;;;;;;;;;;;;;5017103;28;59424;-62
2024/01/06 07:55:32;;;;;;;;;;;;;;;;;;5017469;28;59026;-61
2024/01/06 07:57:57;;;;;;;;;;;;;;;;;;5018466;28;58581;-60
2024/01/06 08:00:22;;;;;;;;;;;;;;;;;;5019507;28;59323;-61
2024/01/06 08:02:47;;;;;;;;;;;;;;;;;;5015722;28;58810;-61
2024/01/06 08:05:12;;;;;;;;;;;;;;;;;;5018755;28;59409;-61
2024/01/06 08:07:37;;;;;;;;;;;;;;;;;;5024759;28;58787;-61
2024/01/06 08:10:04;;;;;;;;;;;;;;;;;;5020056;28;58901;-62
2024/01/06 08:12:29;;;;;;;;;;;;;;;;;;5016041;28;60215;-62
2024/01/06 08:14:54;;;;;;;;;;;;;;;;;;5019617;28;59995;-61
2024/01/06 08:17:19;;;;;;;;;;;;;;;;;;5023459;27;58682;-61
2024/01/06 08:19:47;;;;;;;;;;;;;;;;;;5019274;28;59422;-63
2024/01/06 08:22:12;;;;;;;;;;;;;;;;;;5013322;28;58349;-63
2024/01/06 08:24:37;;;;;;;;;;;;;;;;;;5017235;27;58508;-64
2024/01/06 08:27:02;;;;;;;;;;;;;;;;;;5018245;28;59893;-62
2024/01/06 08:29:27;;;;;;;;;;;;;;;;;;5020238;28;59032;-63
2024/01/06 08:31:54;;;;;;;;;;;;;;;;;;5015209;28;58692;-62
2024/01/06 08:34:19;;;;;;;;;;;;;;;;;;5018446;28;63581;-64
2024/01/06 08:36:44;;;;;;;;;;;;;;;;;;5020461;27;58688;-61
2024/01/06 08:39:09;;;;;;;;;;;;;;;;;;5010989;28;59509;-66
2024/01/06 08:41:34;;;;;;;;;;;;;;;;;;5016960;28;58295;-67
2024/01/06 08:43:59;;;;;;;;;;;;;;;;;;5019754;28;61555;-66
2024/01/06 08:46:25;;;;;;;;;;;;;;;;;;5014089;28;58917;-67
2024/01/06 08:48:50;;;;;;;;;;;;;;;;;;5017054;28;58641;-67
2024/01/06 08:51:15;;;;;;;;;;;;;;;;;;5018296;28;59660;-63
2024/01/06 08:53:40;;;;;;;;;;;;;;;;;;5018091;28;59236;-61
2024/01/06 08:56:06;;;;;;;;;;;;;;;;;;5018419;28;58827;-62
2024/01/06 08:58:31;;;;;;;;;;;;;;;;;;5018302;28;59401;-62
2024/01/06 09:00:56;;;;;;;;;;;;;;;;;;5020513;28;59863;-62
2024/01/06 09:03:25;;;;;;;;;;;;;;;;;;5017748;28;59063;-61
2024/01/06 09:05:50;;;;;;;;;;;;;;;;;;5017766;28;60207;-63
2024/01/06 09:08:15;;;;;;;;;;;;;;;;;;5017377;27;59185;-64
2024/01/06 09:10:40;;;;;;;;;;;;;;;;;;5019922;28;59766;-62
2024/01/06 09:13:06;;;;;;;;;;;;;;;;;;5020592;28;59973;-65
2024/01/06 09:15:31;;;;;;;;;;;;;;;;;;5023972;28;59413;-63
2024/01/06 09:17:57;;;;;;;;;;;;;;;;;;5016069;28;60333;-62
2024/01/06 09:20:23;;;;;;;;;;;;;;;;;;5015755;27;59091;-62
2024/01/06 09:22:48;;;;;;;;;;;;;;;;;;5018464;28;58570;-63
2024/01/06 09:25:13;;;;;;;;;;;;;;;;;;5020198;27;58958;-62
2024/01/06 09:27:38;;;;;;;;;;;;;;;;;;5018188;27;58389;-64
2024/01/06 09:30:03;;;;;;;;;;;;;;;;;;5015972;28;60290;-62
2024/01/06 09:32:29;;;;;;;;;;;;;;;;;;5018473;27;59732;-62
2024/01/06 09:34:54;;;;;;;;;;;;;;;;;;5012679;28;58674;-63
2024/01/06 09:37:19;;;;;;;;;;;;;;;;;;5014035;28;64024;-63
2024/01/06 09:39:44;;;;;;;;;;;;;;;;;;5019214;28;59792;-64
2024/01/06 09:42:11;;;;;;;;;;;;;;;;;;5012751;28;58366;-63
2024/01/06 09:44:36;;;;;;;;;;;;;;;;;;5015023;27;60419;-64
2024/01/06 09:47:01;;;;;;;;;;;;;;;;;;5020468;28;59769;-65
2024/01/06 09:49:26;;;;;;;;;;;;;;;;;;5022163;28;59541;-64
2024/01/06 09:51:51;;;;;;;;;;;;;;;;;;5017445;28;58577;-63
2024/01/06 09:54:16;;;;;;;;;;;;;;;;;;5019168;27;59124;-65
2024/01/06 09:56:41;;;;;;;;;;;;;;;;;;5016136;28;59228;-63
2024/01/06 09:59:06;;;;;;;;;;;;;;;;;;5015352;27;58882;-68
2024/01/06 10:01:32;;;;;;;;;;;;;;;;;;5017283;28;59544;-68
2024/01/06 10:03:57;;;;;;;;;;;;;;;;;;5018324;28;58498;-67
2024/01/06 10:06:22;;;;;;;;;;;;;;;;;;5016015;28;58802;-79
2024/01/06 10:08:47;;;;;;;;;;;;;;;;;;5021384;28;59407;-79
2024/01/06 10:11:12;;;;;;;;;;;;;;;;;;5021268;28;58979;-77
2024/01/06 10:13:38;;;;;;;;;;;;;;;;;;5021618;28;59374;-76
2024/01/06 10:16:03;;;;;;;;;;;;;;;;;;5022063;28;59254;-77
2024/01/06 10:18:29;;;;;;;;;;;;;;;;;;5018745;28;61223;-77
2024/01/06 10:20:54;;;;;;;;;;;;;;;;;;5020411;28;58405;-78
2024/01/06 10:23:19;;;;;;;;;;;;;;;;;;5022113;28;58839;-77
2024/01/06 10:25:44;;;;;;;;;;;;;;;;;;5021709;28;59616;-79
2024/01/06 10:28:10;;;;;;;;;;;;;;;;;;5020029;28;59885;-75
2024/01/06 10:30:35;;;;;;;;;;;;;;;;;;5021030;28;59216;-76
2024/01/06 10:33:00;;;;;;;;;;;;;;;;;;5022718;27;59271;-77
2024/01/06 10:35:26;;;;;;;;;;;;;;;;;;5020367;28;59519;-79
2024/01/06 10:37:51;;;;;;;;;;;;;;;;;;5021064;28;59382;-76
2024/01/06 10:40:16;;;;;;;;;;;;;;;;;;5019808;28;58437;-77
2024/01/06 10:42:41;;;;;;;;;;;;;;;;;;5019746;28;59001;-77
2024/01/06 10:45:08;;;;;;;;;;;;;;;;;;5020083;28;58695;-76
2024/01/06 10:47:33;;;;;;;;;;;;;;;;;;5020192;28;58385;-80
2024/01/06 10:49:58;;;;;;;;;;;;;;;;;;5020140;28;59776;-79
2024/01/06 10:52:23;;;;;;;;;;;;;;;;;;5020995;28;58923;-77
2024/01/06 10:54:50;;;;;;;;;;;;;;;;;;5019725;28;59357;-75
2024/01/06 10:57:15;;;;;;;;;;;;;;;;;;5021033;28;58476;-75
2024/01/06 10:59:40;;;;;;;;;;;;;;;;;;5022565;28;58431;-70
2024/01/06 11:02:05;;;;;;;;;;;;;;;;;;5020600;28;59787;-72
2024/01/06 11:04:31;;;;;;;;;;;;;;;;;;5019742;28;58960;-71
2024/01/06 11:06:56;;;;;;;;;;;;;;;;;;5021029;28;58509;-69
2024/01/06 11:09:21;;;;;;;;;;;;;;;;;;5020576;28;58868;-72
2024/01/06 11:11:46;;;;;;;;;;;;;;;;;;5019602;28;58792;-69
2024/01/06 11:14:11;;;;;;;;;;;;;;;;;;5021856;28;59778;-70
2024/01/06 11:16:37;;;;;;;;;;;;;;;;;;5019831;28;58702;-70
2024/01/06 11:19:02;;;;;;;;;;;;;;;;;;5019909;28;59077;-72
2024/01/06 11:21:27;;;;;;;;;;;;;;;;;;5020135;28;59673;-70
2024/01/06 11:23:53;;;;;;;;;;;;;;;;;;5023376;27;58923;-69
2024/01/06 11:26:18;;;;;;;;;;;;;;;;;;5023530;27;58821;-69
2024/01/06 11:28:43;;;;;;;;;;;;;;;;;;5023070;28;59428;-69
2024/01/06 11:31:09;;;;;;;;;;;;;;;;;;5023633;28;59574;-69
2024/01/06 11:33:34;;;;;;;;;;;;;;;;;;5024037;27;58621;-69
2024/01/06 11:35:59;;;;;;;;;;;;;;;;;;5021888;27;59884;-69
2024/01/06 11:38:24;;;;;;;;;;;;;;;;;;5020033;28;59741;-69
2024/01/06 11:40:49;;;;;;;;;;;;;;;;;;5021793;28;60558;-71
2024/01/06 11:43:16;;;;;;;;;;;;;;;;;;5022795;27;58696;-69
2024/01/06 11:45:42;;;;;;;;;;;;;;;;;;5022097;27;58457;-70
2024/01/06 11:48:07;;;;;;;;;;;;;;;;;;5022199;28;59403;-71
2024/01/06 11:50:32;;;;;;;;;;;;;;;;;;5022965;27;58772;-70
2024/01/06 11:52:59;;;;;;;;;;;;;;;;;;5024690;28;58693;-70
2024/01/06 11:55:24;;;;;;;;;;;;;;;;;;5023792;28;59989;-72
2024/01/06 11:57:50;;;;;;;;;;;;;;;;;;5023371;27;58475;-69
2024/01/06 12:00:15;;;;;;;;;;;;;;;;;;5021320;28;60231;-69
2024/01/06 12:02:40;;;;;;;;;;;;;;;;;;5023970;28;59197;-69
2024/01/06 12:05:05;;;;;;;;;;;;;;;;;;5022477;28;58861;-71
2024/01/06 12:07:31;;;;;;;;;;;;;;;;;;5023416;28;60440;-73
2024/01/06 12:09:56;;;;;;;;;;;;;;;;;;5022500;28;60683;-69
2024/01/06 12:12:21;;;;;;;;;;;;;;;;;;5024107;28;58362;-69
2024/01/06 12:14:46;;;;;;;;;;;;;;;;;;5021584;28;58959;-69
2024/01/06 12:17:12;;;;;;;;;;;;;;;;;;5020386;28;59794;-74
2024/01/06 12:19:38;;;;;;;;;;;;;;;;;;5021989;28;59447;-70
2024/01/06 12:22:03;;;;;;;;;;;;;;;;;;5019012;28;60245;-70
2024/01/06 12:24:30;;;;;;;;;;;;;;;;;;5021369;28;59497;-76
2024/01/06 12:26:55;;;;;;;;;;;;;;;;;;5023604;28;60502;-69
2024/01/06 12:29:20;;;;;;;;;;;;;;;;;;5021033;27;60117;-75
2024/01/06 12:31:45;;;;;;;;;;;;;;;;;;5025526;28;58500;-72
2024/01/06 12:34:11;;;;;;;;;;;;;;;;;;5023464;28;60420;-71
2024/01/06 12:36:36;;;;;;;;;;;;;;;;;;5020523;27;58631;-79
2024/01/06 12:39:01;;;;;;;;;;;;;;;;;;5023560;28;59730;-73
2024/01/06 12:41:26;;;;;;;;;;;;;;;;;;5017737;28;59183;-74
2024/01/06 12:43:51;;;;;;;;;;;;;;;;;;5020696;28;59361;-73
2024/01/06 12:46:16;;;;;;;;;;;;;;;;;;5021253;27;60688;-75
2024/01/06 12:48:41;;;;;;;;;;;;;;;;;;5008777;27;58848;-73
2024/01/06 12:51:06;;;;;;;;;;;;;;;;;;5018422;28;58680;-73
2024/01/06 12:53:31;;;;;;;;;;;;;;;;;;5021287;28;59635;-70
2024/01/06 12:55:56;;;;;;;;;;;;;;;;;;5019528;27;60628;-69
2024/01/06 12:58:22;;;;;;;;;;;;;;;;;;5017964;27;60416;-70
2024/01/06 13:00:47;;;;;;;;;;;;;;;;;;5020032;28;59853;-69
2024/01/06 13:03:14;;;;;;;;;;;;;;;;;;5015826;27;59033;-71
2024/01/06 13:05:39;;;;;;;;;;;;;;;;;;5018392;28;59740;-71
2024/01/06 13:08:04;;;;;;;;;;;;;;;;;;5019863;28;59608;-71
2024/01/06 13:10:29;;;;;;;;;;;;;;;;;;5021236;28;58599;-70
2024/01/06 13:12:54;;;;;;;;;;;;;;;;;;5022596;28;59728;-70
2024/01/06 13:15:19;;;;;;;;;;;;;;;;;;5021224;28;58916;-70
2024/01/06 13:17:44;;;;;;;;;;;;;;;;;;5020977;28;58977;-70
2024/01/06 13:20:09;;;;;;;;;;;;;;;;;;5018281;28;59851;-73
2024/01/06 13:22:34;;;;;;;;;;;;;;;;;;5023238;27;59057;-70
2024/01/06 13:25:00;;;;;;;;;;;;;;;;;;5022221;28;58913;-72
2024/01/06 13:27:27;;;;;;;;;;;;;;;;;;5021337;28;60134;-69
2024/01/06 13:29:52;;;;;;;;;;;;;;;;;;5022142;28;58443;-75
2024/01/06 13:32:19;;;;;;;;;;;;;;;;;;5022443;28;58622;-75
2024/01/06 13:34:44;;;;;;;;;;;;;;;;;;5021316;27;59232;-74
2024/01/06 13:37:09;;;;;;;;;;;;;;;;;;5020663;28;58534;-74
2024/01/06 13:39:34;;;;;;;;;;;;;;;;;;5021912;28;59679;-75
2024/01/06 13:41:59;;;;;;;;;;;;;;;;;;5021548;27;58446;-74
2024/01/06 13:44:24;;;;;;;;;;;;;;;;;;5021777;28;58582;-74
2024/01/06 13:46:51;;;;;;;;;;;;;;;;;;5017746;28;59419;-75
2024/01/06 13:49:16;;;;;;;;;;;;;;;;;;5020915;28;59651;-75
2024/01/06 13:51:41;;;;;;;;;;;;;;;;;;5021949;28;59414;-75
2024/01/06 13:54:06;;;;;;;;;;;;;;;;;;5017733;28;60102;-75
2024/01/06 13:56:31;;;;;;;;;;;;;;;;;;5023217;28;58769;-74
2024/01/06 13:58:57;;;;;;;;;;;;;;;;;;5020973;28;58916;-74
2024/01/06 14:01:23;;;;;;;;;;;;;;;;;;5021978;28;59839;-75
2024/01/06 14:03:48;;;;;;;;;;;;;;;;;;5021916;27;59391;-75
2024/01/06 14:06:13;;;;;;;;;;;;;;;;;;5021156;28;59645;-72
2024/01/06 14:08:39;;;;;;;;;;;;;;;;;;5021712;27;58811;-73
2024/01/06 14:11:05;;;;;;;;;;;;;;;;;;5022720;28;60273;-71
2024/01/06 14:13:30;;;;;;;;;;;;;;;;;;5022277;28;59201;-71
2024/01/06 14:15:57;;;;;;;;;;;;;;;;;;5021218;28;59653;-71
2024/01/06 14:18:22;;;;;;;;;;;;;;;;;;5020874;28;60134;-74
2024/01/06 14:20:48;;;;;;;;;;;;;;;;;;5022486;28;58645;-74
2024/01/06 14:23:13;;;;;;;;;;;;;;;;;;5022026;28;59835;-74
2024/01/06 14:25:38;;;;;;;;;;;;;;;;;;5022094;27;59790;-75
2024/01/06 14:28:03;;;;;;;;;;;;;;;;;;5021406;28;58853;-75
2024/01/06 14:30:29;;;;;;;;;;;;;;;;;;5023527;28;59632;-74
2024/01/06 14:32:54;;;;;;;;;;;;;;;;;;5021043;28;59252;-74
2024/01/06 14:35:19;;;;;;;;;;;;;;;;;;5022739;28;58375;-76
2024/01/06 14:37:44;;;;;;;;;;;;;;;;;;5021056;28;60577;-73
2024/01/06 14:40:09;;;;;;;;;;;;;;;;;;5021362;27;59183;-73
2024/01/06 14:42:36;;;;;;;;;;;;;;;;;;5023072;28;58926;-76
2024/01/06 14:45:01;;;;;;;;;;;;;;;;;;5022646;28;59976;-75
2024/01/06 14:47:26;;;;;;;;;;;;;;;;;;5023377;28;58817;-73
2024/01/06 14:49:51;;;;;;;;;;;;;;;;;;5020746;28;59529;-77
2024/01/06 14:52:16;;;;;;;;;;;;;;;;;;5020004;28;59099;-73
2024/01/06 14:54:42;;;;;;;;;;;;;;;;;;5019222;28;58393;-73
2024/01/06 14:57:08;;;;;;;;;;;;;;;;;;5023999;27;60417;-72
2024/01/06 14:59:36;;;;;;;;;;;;;;;;;;5026799;28;59168;-73
2024/01/06 15:02:01;;;;;;;;;;;;;;;;;;5023730;28;58539;-74
2024/01/06 15:04:26;;;;;;;;;;;;;;;;;;5026043;27;59362;-74
2024/01/06 15:06:51;;;;;;;;;;;;;;;;;;5025554;28;58636;-75
2024/01/06 15:09:16;;;;;;;;;;;;;;;;;;5025436;27;59264;-76
2024/01/06 15:11:42;;;;;;;;;;;;;;;;;;5024179;28;59685;-75
2024/01/06 15:14:08;;;;;;;;;;;;;;;;;;5027527;28;58835;-75
2024/01/06 15:16:33;;;;;;;;;;;;;;;;;;5024377;28;60224;-74
2024/01/06 15:18:59;;;;;;;;;;;;;;;;;;5022531;28;59527;-73
2024/01/06 15:21:26;;;;;;;;;;;;;;;;;;5024717;28;58447;-74
2024/01/06 15:23:51;;;;;;;;;;;;;;;;;;5023019;28;60017;-74
2024/01/06 15:26:16;;;;;;;;;;;;;;;;;;5025767;28;59283;-74
2024/01/06 15:28:41;;;;;;;;;;;;;;;;;;5024428;28;58815;-74
2024/01/06 15:31:06;;;;;;;;;;;;;;;;;;5024419;27;59679;-74
2024/01/06 15:33:32;;;;;;;;;;;;;;;;;;5023674;28;58601;-74
2024/01/06 15:35:57;;;;;;;;;;;;;;;;;;5023311;28;60377;-73
2024/01/06 15:38:22;;;;;;;;;;;;;;;;;;5023831;28;58893;-74
2024/01/06 15:40:47;;;;;;;;;;;;;;;;;;5026155;28;58609;-73
2024/01/06 15:43:12;;;;;;;;;;;;;;;;;;5022634;27;59757;-73
2024/01/06 15:45:37;;;;;;;;;;;;;;;;;;5023785;28;59127;-72
2024/01/06 15:48:02;;;;;;;;;;;;;;;;;;5023431;28;58423;-74
2024/01/06 15:50:28;;;;;;;;;;;;;;;;;;5023249;28;58976;-71
2024/01/06 15:52:53;;;;;;;;;;;;;;;;;;5024555;28;58807;-72
2024/01/06 15:55:18;;;;;;;;;;;;;;;;;;5025491;28;60271;-71
2024/01/06 15:57:43;;;;;;;;;;;;;;;;;;5024906;27;58950;-72
2024/01/06 16:00:08;;;;;;;;;;;;;;;;;;5024717;27;58807;-71
2024/01/06 16:02:34;;;;;;;;;;;;;;;;;;5022812;28;59943;-73
2024/01/06 16:04:59;;;;;;;;;;;;;;;;;;5023623;28;58887;-73
2024/01/06 16:07:24;;;;;;;;;;;;;;;;;;5010292;27;58665;-73
2024/01/06 16:09:49;;;;;;;;;;;;;;;;;;5052183;27;59434;-72
2024/01/06 16:12:16;;;;;;;;;;;;;;;;;;5024470;28;58378;-71
2024/01/06 16:14:41;;;;;;;;;;;;;;;;;;5024703;27;59629;-74
2024/01/06 16:17:07;;;;;;;;;;;;;;;;;;5022378;28;59748;-72
2024/01/06 16:19:32;;;;;;;;;;;;;;;;;;5022427;28;58931;-75
2024/01/06 16:21:59;;;;;;;;;;;;;;;;;;5023078;28;59501;-75
2024/01/06 16:24:26;;;;;;;;;;;;;;;;;;5022047;28;58949;-76
2024/01/06 16:26:51;;;;;;;;;;;;;;;;;;5024016;28;58397;-74
2024/01/06 16:29:16;;;;;;;;;;;;;;;;;;5021367;28;59457;-75
2024/01/06 16:31:41;;;;;;;;;;;;;;;;;;5024717;28;59070;-75